New Alexandria, Pennsylvania
Current Conditions -  °F | °C
As of 10:50 AM on Thursday 27 Nov 2014 (Local Time) from KLBE Reporting Station
Broken Clouds Broken Clouds  
Wind Chill: 29°   Ceiling: 6000
Heat Index: 36°   Visibility: 7mi
Dew Point: 32°   Wind: 9mph
Humidity: 87%   Direction: 290°WNW
Pressure: 30.07"   Gusts: NA
Location:  40.4°N, 79.42°W
Report Text: KLBE 271550Z 29008KT 7SM SCT048 BKN060 02/00 A3007
Loading
Personal Weather Stations






























Interactive Weather Map New forecast layout! Learn more

10-Day Weather Forecast

Advertisements
Track Severe Weather on mobile